Weather at Moss Airport, Rygge

Public forecast

Using degrees Celsius for public forecast. Weather courtesy of forecast.io.

Current aviation weather report (METAR) for Moss Airport, Rygge

Retrieved 2021/04/11 23:50 UTC (17 minutes ago):

ENRY 112350Z AUTO 02010KT 9999NDV -DZ FEW007/// SCT027/// BKN034/// 01/M00 Q1012 RESHRA

Aviation forecast (TAF) for Moss Airport, Rygge

Retrieved 2021-04-12 00:57 UTC (0 seconds ago):

TAF ENRY 112300Z 1200/1224 04008KT 9999 -RASN SCT010 BKN015 TEMPO 1200/1214 1200 SN VV004 PROB40 TEMPO 1214/1224 1200 SHSN BKN008 FEW020CB